Terminal Aerodrome Forecast
Issued by NWS

Home | Current Version | Previous Version | Text Only | Print | Product List | Glossary On
Versions: 1 2 3 4 5 6 7 8 9 10 11 12 13 14 15 16 17 18 19 20 21 22
928
FTAK31 PAJN 201723
TAFAJN
TAF
PAJN 201723Z 2018/2118 VRB04KT 3SM BR SCT003 OVC050
      TEMPO 2018/2020 1SM BR BKN003
     FM202100 07005KT P6SM SCT010 OVC060
     FM211200 10005KT 5SM -SHSN BR BKN025 OVC050=

USA.gov is the U.S. government's official web portal to all federal, state and local government web resources and services.